Time;durP1;ratioP1;P1;durP2;ratioP2;P2;SDS_P1;SDS_P2;PMS_P1;PMS_P2;Temp;Humidity;BMP_temperature;BMP_pressure;BME280_temperature;BME280_humidity;BME280_pressure;Samples;Min_cycle;Max_cycle;Signal;HPM_P1;HPM_P2
2020/12/04 00:02:20;;;;;;;;;;;4.40;99.90;;;;;;3512565;40;20056;-80
2020/12/04 00:04:46;;;;;;;;;;;4.40;99.90;;;;;;3513247;33;20290;-79
2020/12/04 00:07:14;;;;;;;;;;;4.40;99.90;;;;;;3526863;40;20428;-79
2020/12/04 00:09:42;;;;;;;;;;;4.50;99.90;;;;;;3561416;32;20026;-79
2020/12/04 00:12:09;;;;;;;;;;;4.50;99.90;;;;;;3531432;40;20483;-79
2020/12/04 00:14:45;;;;;;;;;;;4.50;99.90;;;;;;3531857;40;20562;-79
2020/12/04 00:17:11;;;;;;;;;;;4.50;99.90;;;;;;3533200;40;20075;-78
2020/12/04 00:19:40;;;;;;;;;;;4.50;99.90;;;;;;3542042;40;20036;-79
2020/12/04 00:22:06;;;;;;;;;;;4.60;99.90;;;;;;3551188;32;20032;-79
2020/12/04 00:24:34;;;;;;;;;;;4.60;99.90;;;;;;3550945;40;20040;-79
2020/12/04 00:27:03;;;;;;;;;;;4.60;99.90;;;;;;3551337;40;20000;-77
2020/12/04 00:29:41;;;;;;;;;;;4.60;99.90;;;;;;3552471;32;20044;-78
2020/12/04 00:32:07;;;;;;;;;;;4.70;99.90;;;;;;3560247;32;20000;-78
2020/12/04 00:34:38;;;;;;;;;;;4.70;99.90;;;;;;3549650;40;20031;-78
2020/12/04 00:37:09;;;;;;;;;;;4.70;99.90;;;;;;3531572;33;20141;-79
2020/12/04 00:39:38;;;;;;;;;;;4.70;99.90;;;;;;3531557;40;20055;-79
2020/12/04 00:42:06;;;;;;;;;;;4.70;99.90;;;;;;3531918;32;20033;-78
2020/12/04 00:44:34;;;;;;;;;;;4.70;99.90;;;;;;3540979;40;20016;-79
2020/12/04 00:47:14;;;;;;;;;;;4.70;99.90;;;;;;3541083;40;20020;-82
2020/12/04 00:49:45;;;;;;;;;;;4.70;99.90;;;;;;3578356;32;20438;-79
2020/12/04 00:52:16;;;;;;;;;;;4.70;99.90;;;;;;3531628;32;20194;-78
2020/12/04 00:55:03;;;;;;;;;;;4.70;99.90;;;;;;3511720;40;19994;-78
2020/12/04 00:57:38;;;;;;;;;;;4.70;99.90;;;;;;3511674;40;20495;-79
2020/12/04 01:00:15;;;;;;;;;;;4.60;99.90;;;;;;3512418;33;20037;-79
2020/12/04 01:02:47;;;;;;;;;;;4.60;99.90;;;;;;3525884;33;20008;-79
2020/12/04 01:05:23;;;;;;;;;;;4.60;99.90;;;;;;3531713;32;20025;-78
2020/12/04 01:07:52;;;;;;;;;;;4.60;99.90;;;;;;3527640;32;19993;-79
2020/12/04 01:10:23;;;;;;;;;;;4.60;99.90;;;;;;3542460;33;19997;-80
2020/12/04 01:12:55;;;;;;;;;;;4.60;99.90;;;;;;3543144;40;19996;-78
2020/12/04 01:15:28;;;;;;;;;;;4.70;99.90;;;;;;3543101;32;20024;-79
2020/12/04 01:17:57;;;;;;;;;;;4.70;99.90;;;;;;3560896;32;20000;-78
2020/12/04 01:20:30;;;;;;;;;;;4.70;99.90;;;;;;3529891;40;20140;-78
2020/12/04 01:23:02;;;;;;;;;;;4.70;99.90;;;;;;3510293;40;20415;-80
2020/12/04 01:25:30;;;;;;;;;;;4.70;99.90;;;;;;3499073;33;20010;-78
2020/12/04 01:27:56;;;;;;;;;;;4.70;99.90;;;;;;3494360;33;20433;-79
2020/12/04 01:30:31;;;;;;;;;;;4.70;99.90;;;;;;3493873;33;20014;-80
2020/12/04 01:32:59;;;;;;;;;;;4.70;99.90;;;;;;3505393;33;20056;-81
2020/12/04 01:35:25;;;;;;;;;;;4.70;99.90;;;;;;3512387;40;20021;-78
2020/12/04 01:37:54;;;;;;;;;;;4.70;99.90;;;;;;3511104;40;20072;-78
2020/12/04 01:40:26;;;;;;;;;;;4.70;99.90;;;;;;3512451;40;20022;-78
2020/12/04 01:42:58;;;;;;;;;;;4.70;99.90;;;;;;3519106;33;20001;-78
2020/12/04 01:45:32;;;;;;;;;;;4.70;99.90;;;;;;3553134;33;20465;-78
2020/12/04 01:48:01;;;;;;;;;;;4.70;99.90;;;;;;3500727;40;20608;-79
2020/12/04 01:50:36;;;;;;;;;;;4.70;99.90;;;;;;3522826;33;20033;-79
2020/12/04 01:53:08;;;;;;;;;;;4.70;99.90;;;;;;3531153;32;20603;-78
2020/12/04 01:55:35;;;;;;;;;;;4.70;99.90;;;;;;3540300;40;20671;-79
2020/12/04 01:58:04;;;;;;;;;;;4.60;99.90;;;;;;3541874;32;20004;-78
2020/12/04 02:00:33;;;;;;;;;;;4.60;99.90;;;;;;3538429;40;20011;-79
2020/12/04 02:03:19;;;;;;;;;;;4.60;99.90;;;;;;3530286;33;20260;-77
2020/12/04 02:06:14;;;;;;;;;;;4.70;99.90;;;;;;3529102;32;20006;-79
2020/12/04 02:08:44;;;;;;;;;;;4.70;99.90;;;;;;3478523;41;20544;-79
2020/12/04 02:11:18;;;;;;;;;;;4.70;99.90;;;;;;3482771;41;20015;-78
2020/12/04 02:13:48;;;;;;;;;;;4.60;99.90;;;;;;3475890;33;20500;-78
2020/12/04 02:16:19;;;;;;;;;;;4.60;99.90;;;;;;3476550;41;20465;-78
2020/12/04 02:18:48;;;;;;;;;;;4.60;99.90;;;;;;3482445;33;20466;-78
2020/12/04 02:21:14;;;;;;;;;;;4.50;99.90;;;;;;3485760;41;20057;-78
2020/12/04 02:23:46;;;;;;;;;;;4.50;99.90;;;;;;3491974;41;20018;-78
2020/12/04 02:26:36;;;;;;;;;;;4.50;99.90;;;;;;3490346;41;19998;-79
2020/12/04 02:29:04;;;;;;;;;;;4.40;99.90;;;;;;3510957;40;19997;-80
2020/12/04 02:31:32;;;;;;;;;;;4.40;99.90;;;;;;3511603;33;20009;-80
2020/12/04 02:34:01;;;;;;;;;;;4.40;99.90;;;;;;3504940;33;20199;-80
2020/12/04 02:36:47;;;;;;;;;;;4.40;99.90;;;;;;3507154;40;20100;-80
2020/12/04 02:39:17;;;;;;;;;;;4.40;99.90;;;;;;3492434;33;20003;-80
2020/12/04 02:42:08;;;;;;;;;;;4.40;99.90;;;;;;3491509;41;20039;-79
2020/12/04 02:44:37;;;;;;;;;;;4.40;99.90;;;;;;3508780;40;20012;-79
2020/12/04 02:47:03;;;;;;;;;;;4.40;99.90;;;;;;3520748;33;19994;-80
2020/12/04 02:49:32;;;;;;;;;;;4.40;99.90;;;;;;3520816;40;20005;-79
2020/12/04 02:51:59;;;;;;;;;;;4.40;99.90;;;;;;3522173;32;20034;-79
2020/12/04 02:54:33;;;;;;;;;;;4.40;99.90;;;;;;3512133;33;20096;-79
2020/12/04 02:57:02;;;;;;;;;;;4.40;99.90;;;;;;3511217;40;20002;-80
2020/12/04 02:59:30;;;;;;;;;;;4.40;99.90;;;;;;3513223;40;20068;-79
2020/12/04 03:01:59;;;;;;;;;;;4.30;99.90;;;;;;3519138;40;20016;-78
2020/12/04 03:05:04;;;;;;;;;;;4.30;99.90;;;;;;3500186;33;20003;-80
2020/12/04 03:07:33;;;;;;;;;;;4.30;99.90;;;;;;3486359;41;20071;-79
2020/12/04 03:10:04;;;;;;;;;;;4.30;99.90;;;;;;3492876;33;19990;-79
2020/12/04 03:12:43;;;;;;;;;;;4.40;99.90;;;;;;3500846;41;20029;-79
2020/12/04 03:15:20;;;;;;;;;;;4.30;99.90;;;;;;3500168;33;20081;-79
2020/12/04 03:17:46;;;;;;;;;;;4.30;99.90;;;;;;3484700;41;20147;-79
2020/12/04 03:20:25;;;;;;;;;;;4.40;99.90;;;;;;3487065;41;20548;-80
2020/12/04 03:22:54;;;;;;;;;;;4.30;99.90;;;;;;3483863;33;20574;-79
2020/12/04 03:25:23;;;;;;;;;;;4.40;99.90;;;;;;3487782;41;20006;-80
2020/12/04 03:27:49;;;;;;;;;;;4.30;99.90;;;;;;3506715;33;20021;-78
2020/12/04 03:30:16;;;;;;;;;;;4.40;99.90;;;;;;3505131;40;20301;-78
2020/12/04 03:32:42;;;;;;;;;;;4.40;99.90;;;;;;3512374;40;20198;-77
2020/12/04 03:35:08;;;;;;;;;;;4.30;99.90;;;;;;3511393;40;20006;-77
2020/12/04 03:37:34;;;;;;;;;;;4.40;99.90;;;;;;3523090;40;20344;-78
2020/12/04 03:40:03;;;;;;;;;;;4.40;99.90;;;;;;3531590;40;20042;-77
2020/12/04 03:42:28;;;;;;;;;;;4.40;99.90;;;;;;3531386;32;19990;-78
2020/12/04 03:45:14;;;;;;;;;;;4.40;99.90;;;;;;3532072;40;20417;-78
2020/12/04 03:47:48;;;;;;;;;;;4.40;99.90;;;;;;3521783;40;20639;-79
2020/12/04 03:50:14;;;;;;;;;;;4.40;99.90;;;;;;3512380;40;20090;-78
2020/12/04 03:52:42;;;;;;;;;;;4.40;99.90;;;;;;3504434;40;20012;-78
2020/12/04 03:55:17;;;;;;;;;;;4.40;99.90;;;;;;3523058;33;20033;-78
2020/12/04 03:57:44;;;;;;;;;;;4.40;99.90;;;;;;3527047;33;20021;-78
2020/12/04 04:00:10;;;;;;;;;;;4.40;99.90;;;;;;3535488;32;19996;-78
2020/12/04 04:02:38;;;;;;;;;;;4.40;99.90;;;;;;3541335;40;20128;-78
2020/12/04 04:05:04;;;;;;;;;;;4.50;99.90;;;;;;3541523;40;20068;-77
2020/12/04 04:07:40;;;;;;;;;;;4.50;99.90;;;;;;3529982;40;20001;-78
2020/12/04 04:10:11;;;;;;;;;;;4.50;99.90;;;;;;3523441;40;20033;-79
2020/12/04 04:12:43;;;;;;;;;;;4.50;99.90;;;;;;3522265;40;20013;-78
2020/12/04 04:15:12;;;;;;;;;;;4.50;99.90;;;;;;3512039;40;20186;-78
2020/12/04 04:17:38;;;;;;;;;;;4.50;99.90;;;;;;3512166;33;20028;-79
2020/12/04 04:20:10;;;;;;;;;;;4.50;99.90;;;;;;3514375;33;20386;-77
2020/12/04 04:22:36;;;;;;;;;;;4.50;99.90;;;;;;3532616;32;20017;-78
2020/12/04 04:25:07;;;;;;;;;;;4.50;99.90;;;;;;3531657;40;20009;-77
2020/12/04 04:27:34;;;;;;;;;;;4.50;99.90;;;;;;3524678;33;20083;-78
2020/12/04 04:30:03;;;;;;;;;;;4.40;99.90;;;;;;3530805;40;20462;-79
2020/12/04 04:32:42;;;;;;;;;;;4.40;99.90;;;;;;3532706;33;20001;-78
2020/12/04 04:35:08;;;;;;;;;;;4.40;99.90;;;;;;3564062;32;20000;-78
2020/12/04 04:37:38;;;;;;;;;;;4.50;99.90;;;;;;3559986;40;20003;-78
2020/12/04 04:40:13;;;;;;;;;;;4.50;99.90;;;;;;3560553;40;20008;-78
2020/12/04 04:42:41;;;;;;;;;;;4.50;99.90;;;;;;3562261;32;20007;-77
2020/12/04 04:45:13;;;;;;;;;;;4.50;99.90;;;;;;3542488;32;21291;-77
2020/12/04 04:47:44;;;;;;;;;;;4.50;99.90;;;;;;3536197;32;20008;-79
2020/12/04 04:50:12;;;;;;;;;;;4.50;99.90;;;;;;3522517;32;20012;-78
2020/12/04 04:52:43;;;;;;;;;;;4.50;99.90;;;;;;3523300;40;20212;-79
2020/12/04 04:55:21;;;;;;;;;;;4.50;99.90;;;;;;3532416;40;20019;-77
2020/12/04 04:57:50;;;;;;;;;;;4.50;99.90;;;;;;3531803;32;20001;-78
2020/12/04 05:00:21;;;;;;;;;;;4.50;99.90;;;;;;3529322;40;20053;-79
2020/12/04 05:02:47;;;;;;;;;;;4.60;99.90;;;;;;3529748;32;20447;-78
2020/12/04 05:05:15;;;;;;;;;;;4.50;99.90;;;;;;3520642;40;20001;-78
2020/12/04 05:07:41;;;;;;;;;;;4.60;99.90;;;;;;3503429;33;20046;-78
2020/12/04 05:10:14;;;;;;;;;;;4.60;99.90;;;;;;3501330;40;19990;-77
2020/12/04 05:12:46;;;;;;;;;;;4.60;99.90;;;;;;3512045;40;20002;-78
2020/12/04 05:15:22;;;;;;;;;;;4.60;99.90;;;;;;3512243;33;20002;-79
2020/12/04 05:18:00;;;;;;;;;;;4.60;99.90;;;;;;3501838;40;20088;-77
2020/12/04 05:20:32;;;;;;;;;;;4.60;99.90;;;;;;3521399;40;20167;-77
2020/12/04 05:23:04;;;;;;;;;;;4.60;99.90;;;;;;3502342;33;20014;-77
2020/12/04 05:25:54;;;;;;;;;;;4.50;99.90;;;;;;3518907;33;20011;-77
2020/12/04 05:28:26;;;;;;;;;;;4.50;99.90;;;;;;3541059;32;20003;-78
2020/12/04 05:31:10;;;;;;;;;;;4.50;99.90;;;;;;3560228;40;20008;-77
2020/12/04 05:33:48;;;;;;;;;;;4.50;99.90;;;;;;3550636;40;20183;-78
2020/12/04 05:36:24;;;;;;;;;;;4.50;99.90;;;;;;3559180;32;19997;-77
2020/12/04 05:38:53;;;;;;;;;;;4.50;99.90;;;;;;3559836;40;20000;-78
2020/12/04 05:41:19;;;;;;;;;;;4.60;99.90;;;;;;3560295;32;20159;-78
2020/12/04 05:43:51;;;;;;;;;;;4.60;99.90;;;;;;3559876;40;20401;-77
2020/12/04 05:46:20;;;;;;;;;;;4.60;99.90;;;;;;3560187;40;20539;-78
2020/12/04 05:49:04;;;;;;;;;;;4.60;99.90;;;;;;3550682;40;20480;-77
2020/12/04 05:51:33;;;;;;;;;;;4.60;99.90;;;;;;3554719;32;20028;-77
2020/12/04 05:54:05;;;;;;;;;;;4.60;99.90;;;;;;3555576;32;20413;-79
2020/12/04 05:56:38;;;;;;;;;;;4.60;99.90;;;;;;3551370;40;20417;-78
2020/12/04 05:59:08;;;;;;;;;;;4.70;99.90;;;;;;3529372;40;20013;-78
2020/12/04 06:01:43;;;;;;;;;;;4.70;99.90;;;;;;3532129;32;20077;-79
2020/12/04 06:04:15;;;;;;;;;;;4.70;99.90;;;;;;3530503;40;20005;-78
2020/12/04 06:06:46;;;;;;;;;;;4.80;99.90;;;;;;3548736;32;20040;-77
2020/12/04 06:09:14;;;;;;;;;;;4.80;99.90;;;;;;3553396;32;20675;-77
2020/12/04 06:11:49;;;;;;;;;;;4.80;99.90;;;;;;3602385;32;19997;-78
2020/12/04 06:14:24;;;;;;;;;;;4.80;99.90;;;;;;3532677;32;19993;-79
2020/12/04 06:17:13;;;;;;;;;;;4.80;99.90;;;;;;3529193;32;20048;-77
2020/12/04 06:19:43;;;;;;;;;;;4.80;99.90;;;;;;3529271;33;20000;-78
2020/12/04 06:22:13;;;;;;;;;;;4.80;99.90;;;;;;3512585;40;19998;-79
2020/12/04 06:24:58;;;;;;;;;;;4.80;99.90;;;;;;3522970;32;20002;-78
2020/12/04 06:27:44;;;;;;;;;;;4.80;99.90;;;;;;3510996;40;20080;-81
2020/12/04 06:30:11;;;;;;;;;;;4.90;99.90;;;;;;3511277;40;20024;-78
2020/12/04 06:32:41;;;;;;;;;;;4.90;99.90;;;;;;3520861;40;20127;-79
2020/12/04 06:35:11;;;;;;;;;;;5.00;99.90;;;;;;3530257;40;20001;-79
2020/12/04 06:37:49;;;;;;;;;;;5.00;99.90;;;;;;3553471;32;20584;-78
2020/12/04 06:40:29;;;;;;;;;;;5.00;99.90;;;;;;3525546;33;20551;-77
2020/12/04 06:43:03;;;;;;;;;;;5.00;99.90;;;;;;3529746;33;20001;-79
2020/12/04 06:45:48;;;;;;;;;;;5.10;99.90;;;;;;3535075;32;20005;-78
2020/12/04 06:48:21;;;;;;;;;;;5.10;99.90;;;;;;3520984;33;20017;-78
2020/12/04 06:50:50;;;;;;;;;;;5.20;99.90;;;;;;3525584;32;20529;-78
2020/12/04 06:53:18;;;;;;;;;;;5.20;99.90;;;;;;3524895;40;20531;-78
2020/12/04 06:55:48;;;;;;;;;;;5.20;99.90;;;;;;3520700;33;20012;-78
2020/12/04 06:58:17;;;;;;;;;;;5.20;99.90;;;;;;3520009;40;20513;-79
2020/12/04 07:00:49;;;;;;;;;;;5.30;99.90;;;;;;3520297;33;20005;-78
2020/12/04 07:03:22;;;;;;;;;;;5.30;99.90;;;;;;3517422;33;20498;-78
2020/12/04 07:07:40;;;;;;;;;;;5.30;99.90;;;;;;5129039;27;20348;-80
2020/12/04 07:10:09;;;;;;;;;;;5.40;99.90;;;;;;5110718;28;19919;-80
2020/12/04 07:12:38;;;;;;;;;;;5.50;99.90;;;;;;5132371;28;19968;-81
2020/12/04 07:15:04;;;;;;;;;;;5.50;99.90;;;;;;5107775;28;19934;-80
2020/12/04 07:17:32;;;;;;;;;;;5.50;99.90;;;;;;5129061;28;19912;-80
2020/12/04 07:20:04;;;;;;;;;;;5.60;99.90;;;;;;5131995;28;20050;-80
2020/12/04 07:22:32;;;;;;;;;;;5.60;99.90;;;;;;5118165;28;20364;-80
2020/12/04 07:25:07;;;;;;;;;;;5.60;99.90;;;;;;5127449;28;19943;-80
2020/12/04 07:27:40;;;;;;;;;;;5.70;99.90;;;;;;5110327;28;19923;-80
2020/12/04 07:30:25;;;;;;;;;;;5.70;99.90;;;;;;5130202;28;20003;-80
2020/12/04 07:32:54;;;;;;;;;;;5.70;99.90;;;;;;5112660;28;19943;-80
2020/12/04 07:35:24;;;;;;;;;;;5.70;99.90;;;;;;5113433;28;19908;-80
2020/12/04 07:37:53;;;;;;;;;;;5.80;99.90;;;;;;5131443;28;19915;-80
2020/12/04 07:40:23;;;;;;;;;;;5.80;99.90;;;;;;5131593;28;19911;-80
2020/12/04 07:42:55;;;;;;;;;;;5.80;99.90;;;;;;5113803;28;20475;-80
2020/12/04 07:45:45;;;;;;;;;;;5.90;99.90;;;;;;5129178;28;19981;-80
2020/12/04 07:48:14;;;;;;;;;;;5.80;99.90;;;;;;5112899;28;19908;-80
2020/12/04 07:50:41;;;;;;;;;;;5.80;99.90;;;;;;5128443;28;19919;-80
2020/12/04 07:53:09;;;;;;;;;;;5.90;99.90;;;;;;5109848;28;19912;-80
2020/12/04 07:55:47;;;;;;;;;;;5.90;99.90;;;;;;5113116;28;19932;-80
2020/12/04 07:58:19;;;;;;;;;;;6.00;99.90;;;;;;5109741;28;19920;-81
2020/12/04 08:00:47;;;;;;;;;;;5.90;99.90;;;;;;5112949;28;19964;-81
2020/12/04 08:03:16;;;;;;;;;;;5.90;99.90;;;;;;5131232;28;19915;-81
2020/12/04 08:05:48;;;;;;;;;;;5.90;99.90;;;;;;5131075;28;19925;-81
2020/12/04 08:08:20;;;;;;;;;;;6.00;99.90;;;;;;5131563;28;20049;-81
2020/12/04 08:11:13;;;;;;;;;;;6.00;99.90;;;;;;5109697;28;19911;-81
2020/12/04 08:13:46;;;;;;;;;;;6.10;99.90;;;;;;5112223;28;19912;-80
2020/12/04 08:16:12;;;;;;;;;;;6.10;99.90;;;;;;5105860;28;19916;-80
2020/12/04 08:18:45;;;;;;;;;;;6.10;99.90;;;;;;5110619;28;19923;-80
2020/12/04 08:21:19;;;;;;;;;;;6.10;99.90;;;;;;5117397;28;19908;-80
2020/12/04 08:23:53;;;;;;;;;;;6.20;99.90;;;;;;5099077;28;19915;-80
2020/12/04 08:26:21;;;;;;;;;;;6.20;99.90;;;;;;5098859;28;19926;-80
2020/12/04 08:28:59;;;;;;;;;;;6.20;99.90;;;;;;5099116;28;19908;-80
2020/12/04 08:31:28;;;;;;;;;;;6.20;99.90;;;;;;5098855;28;19907;-80
2020/12/04 08:33:59;;;;;;;;;;;6.30;99.90;;;;;;5098595;28;19956;-80
2020/12/04 08:36:28;;;;;;;;;;;6.30;99.90;;;;;;5095938;28;20265;-80
2020/12/04 08:39:04;;;;;;;;;;;6.40;99.90;;;;;;5095422;28;20440;-80
2020/12/04 08:41:44;;;;;;;;;;;6.50;99.90;;;;;;5098739;28;19912;-80
2020/12/04 08:44:13;;;;;;;;;;;6.60;99.90;;;;;;5116433;28;19914;-80
2020/12/04 08:46:41;;;;;;;;;;;6.60;99.90;;;;;;5097325;28;19912;-80
2020/12/04 08:49:12;;;;;;;;;;;6.60;99.90;;;;;;5116631;28;20272;-80
2020/12/04 08:51:45;;;;;;;;;;;6.60;99.90;;;;;;5116815;28;19908;-80
2020/12/04 08:54:16;;;;;;;;;;;6.70;99.90;;;;;;5117063;28;20014;-80
2020/12/04 08:56:57;;;;;;;;;;;6.70;99.90;;;;;;5116288;28;19950;-80
2020/12/04 08:59:28;;;;;;;;;;;6.70;99.90;;;;;;5098295;28;19969;-80
2020/12/04 09:01:56;;;;;;;;;;;6.80;99.90;;;;;;5097957;28;19970;-80
2020/12/04 09:04:35;;;;;;;;;;;7.00;99.90;;;;;;5116366;28;20393;-80
2020/12/04 09:07:03;;;;;;;;;;;7.00;99.90;;;;;;5097494;28;20014;-80
2020/12/04 09:09:34;;;;;;;;;;;7.00;99.90;;;;;;5097715;28;19908;-80
2020/12/04 09:12:02;;;;;;;;;;;7.00;99.90;;;;;;5098236;28;19908;-80
2020/12/04 09:14:27;;;;;;;;;;;7.00;99.90;;;;;;5115993;28;19908;-80
2020/12/04 09:16:59;;;;;;;;;;;7.00;99.90;;;;;;5116011;28;20276;-80
2020/12/04 09:19:30;;;;;;;;;;;6.90;99.90;;;;;;5116668;28;19912;-80
2020/12/04 09:21:58;;;;;;;;;;;6.90;99.90;;;;;;5097760;28;19908;-80
2020/12/04 09:24:26;;;;;;;;;;;7.10;99.90;;;;;;5097626;28;19958;-80
2020/12/04 09:26:54;;;;;;;;;;;7.10;99.90;;;;;;5115841;28;19920;-80
2020/12/04 09:29:20;;;;;;;;;;;7.20;99.90;;;;;;5097358;28;19915;-80
2020/12/04 09:31:48;;;;;;;;;;;7.20;99.90;;;;;;5097747;28;19908;-80
2020/12/04 09:34:22;;;;;;;;;;;7.20;99.90;;;;;;5116145;28;20449;-80
2020/12/04 09:36:51;;;;;;;;;;;7.30;99.90;;;;;;5115722;28;19908;-81
2020/12/04 09:39:22;;;;;;;;;;;7.40;99.90;;;;;;5097866;28;19970;-81
2020/12/04 09:42:01;;;;;;;;;;;7.50;99.90;;;;;;5116299;28;19962;-80
2020/12/04 09:44:33;;;;;;;;;;;7.50;99.90;;;;;;5097782;28;19908;-80
2020/12/04 09:47:04;;;;;;;;;;;7.50;99.90;;;;;;5115426;28;19935;-80
2020/12/04 09:49:34;;;;;;;;;;;7.50;99.90;;;;;;5072634;28;19908;-81
2020/12/04 09:52:05;;;;;;;;;;;7.50;99.90;;;;;;5072966;28;19915;-80
2020/12/04 09:54:38;;;;;;;;;;;7.50;99.90;;;;;;5055830;28;19908;-81
2020/12/04 09:57:12;;;;;;;;;;;7.50;99.90;;;;;;5055790;28;20380;-79
2020/12/04 09:59:44;;;;;;;;;;;7.60;99.90;;;;;;5055658;28;20269;-79
2020/12/04 10:02:18;;;;;;;;;;;7.60;99.90;;;;;;5072531;28;19908;-79
2020/12/04 10:04:46;;;;;;;;;;;7.70;99.90;;;;;;5055915;28;20364;-79
2020/12/04 10:07:18;;;;;;;;;;;7.70;99.90;;;;;;5071970;28;20105;-80
2020/12/04 10:09:53;;;;;;;;;;;7.70;99.90;;;;;;5055703;28;19930;-80
2020/12/04 10:12:22;;;;;;;;;;;7.70;99.90;;;;;;5072266;28;20391;-80
2020/12/04 10:14:53;;;;;;;;;;;7.70;99.90;;;;;;5107024;28;19908;-79
2020/12/04 10:17:22;;;;;;;;;;;7.70;99.90;;;;;;5097291;28;19935;-80
2020/12/04 10:19:53;;;;;;;;;;;7.70;99.90;;;;;;5096720;28;19908;-79
2020/12/04 10:22:21;;;;;;;;;;;7.70;99.90;;;;;;5115348;28;19912;-80
2020/12/04 10:24:58;;;;;;;;;;;7.80;99.90;;;;;;5114490;28;19950;-79
2020/12/04 10:27:32;;;;;;;;;;;7.80;99.90;;;;;;5114551;28;20410;-79
2020/12/04 10:30:00;;;;;;;;;;;7.90;99.90;;;;;;5096353;28;19950;-81
2020/12/04 10:32:26;;;;;;;;;;;7.90;99.90;;;;;;5114459;28;19907;-80
2020/12/04 10:35:00;;;;;;;;;;;7.90;99.90;;;;;;5096520;28;19927;-81
2020/12/04 10:37:29;;;;;;;;;;;8.00;99.90;;;;;;5097082;28;19951;-80
2020/12/04 10:40:00;;;;;;;;;;;8.00;99.40;;;;;;5095920;28;20318;-81
2020/12/04 10:42:39;;;;;;;;;;;8.10;99.30;;;;;;5096493;28;19911;-80
2020/12/04 10:45:07;;;;;;;;;;;8.00;98.80;;;;;;5096010;28;19933;-81
2020/12/04 10:47:43;;;;;;;;;;;8.10;98.30;;;;;;5096350;28;19916;-81
2020/12/04 10:50:14;;;;;;;;;;;8.10;97.80;;;;;;5096263;28;20372;-80
2020/12/04 10:52:51;;;;;;;;;;;8.20;97.40;;;;;;5096707;28;19908;-81
2020/12/04 10:55:23;;;;;;;;;;;8.10;96.80;;;;;;5096463;28;20272;-81
2020/12/04 10:57:52;;;;;;;;;;;8.10;96.80;;;;;;5095898;28;19908;-80
2020/12/04 11:00:23;;;;;;;;;;;8.10;95.80;;;;;;5096051;28;20386;-80
2020/12/04 11:02:57;;;;;;;;;;;8.10;96.00;;;;;;5096492;28;19914;-80
2020/12/04 11:05:45;;;;;;;;;;;8.20;95.10;;;;;;5114177;28;19912;-81
2020/12/04 11:08:26;;;;;;;;;;;8.40;94.10;;;;;;5096370;28;20339;-80
2020/12/04 11:10:54;;;;;;;;;;;8.40;92.90;;;;;;5096625;28;19915;-81
2020/12/04 11:13:27;;;;;;;;;;;8.40;92.20;;;;;;5114099;28;19908;-80
2020/12/04 11:16:01;;;;;;;;;;;8.40;91.30;;;;;;5095749;28;19916;-81
2020/12/04 11:18:42;;;;;;;;;;;8.40;91.30;;;;;;5095989;28;20364;-80
2020/12/04 11:21:10;;;;;;;;;;;8.40;92.10;;;;;;5096064;28;20349;-80
2020/12/04 11:23:39;;;;;;;;;;;8.40;91.40;;;;;;5114614;28;19953;-80
2020/12/04 11:26:10;;;;;;;;;;;8.40;91.40;;;;;;5114622;28;20376;-80
2020/12/04 11:28:36;;;;;;;;;;;8.50;91.20;;;;;;5114378;28;19937;-80
2020/12/04 11:31:04;;;;;;;;;;;9.20;91.10;;;;;;5112912;28;19912;-81
2020/12/04 11:33:33;;;;;;;;;;;10.10;89.80;;;;;;5095690;28;20013;-81
2020/12/04 11:36:01;;;;;;;;;;;10.80;83.80;;;;;;5096020;28;19907;-80
2020/12/04 11:38:29;;;;;;;;;;;11.30;78.40;;;;;;5096269;28;20316;-79
2020/12/04 11:40:58;;;;;;;;;;;11.30;78.00;;;;;;5095673;28;19997;-80
2020/12/04 11:43:26;;;;;;;;;;;11.40;76.30;;;;;;5095598;28;20007;-81
2020/12/04 11:46:10;;;;;;;;;;;11.70;74.50;;;;;;5106655;28;19916;-81
2020/12/04 11:48:38;;;;;;;;;;;11.70;74.00;;;;;;5073471;28;20440;-81
2020/12/04 11:51:08;;;;;;;;;;;11.40;74.80;;;;;;5087901;28;20356;-81
2020/12/04 11:53:37;;;;;;;;;;;10.90;76.10;;;;;;5103812;28;19916;-81
2020/12/04 11:56:08;;;;;;;;;;;10.50;78.10;;;;;;5089213;28;19927;-81
2020/12/04 11:58:38;;;;;;;;;;;10.30;78.40;;;;;;5098420;28;19912;-82
2020/12/04 12:01:03;;;;;;;;;;;10.40;79.20;;;;;;5099139;28;19931;-82
2020/12/04 12:03:42;;;;;;;;;;;10.50;79.20;;;;;;5099655;28;20284;-80
2020/12/04 12:06:13;;;;;;;;;;;10.50;77.80;;;;;;5117280;28;20024;-81
2020/12/04 12:08:45;;;;;;;;;;;10.90;77.50;;;;;;5096307;28;20019;-81
2020/12/04 12:11:14;;;;;;;;;;;11.20;77.40;;;;;;5116911;28;20379;-81
2020/12/04 12:13:44;;;;;;;;;;;12.30;75.70;;;;;;5095977;28;19919;-81
2020/12/04 12:16:13;;;;;;;;;;;13.10;73.90;;;;;;5098970;28;19908;-82
2020/12/04 12:18:41;;;;;;;;;;;13.20;71.30;;;;;;5117548;28;19914;-80
2020/12/04 12:21:13;;;;;;;;;;;13.10;70.50;;;;;;5098201;28;19912;-80
2020/12/04 12:23:42;;;;;;;;;;;13.00;69.60;;;;;;5097011;28;20002;-80
2020/12/04 12:26:13;;;;;;;;;;;12.80;70.20;;;;;;5098881;28;20006;-80
2020/12/04 12:28:42;;;;;;;;;;;12.50;71.10;;;;;;5098698;28;19961;-80
2020/12/04 12:31:13;;;;;;;;;;;12.10;71.10;;;;;;5098858;28;20331;-80
2020/12/04 12:33:42;;;;;;;;;;;11.70;72.20;;;;;;5094499;28;19916;-80
2020/12/04 12:36:15;;;;;;;;;;;11.20;73.70;;;;;;5078112;28;19908;-81
2020/12/04 12:38:40;;;;;;;;;;;10.90;75.10;;;;;;5092610;28;19994;-81
2020/12/04 12:41:08;;;;;;;;;;;10.50;76.30;;;;;;5113430;28;20002;-80
2020/12/04 12:43:43;;;;;;;;;;;10.30;76.30;;;;;;5116803;28;19908;-80
2020/12/04 12:46:15;;;;;;;;;;;10.00;77.30;;;;;;5098392;28;20018;-80
2020/12/04 12:48:48;;;;;;;;;;;9.90;77.70;;;;;;5116403;28;19910;-80
2020/12/04 12:51:14;;;;;;;;;;;9.80;77.60;;;;;;5098316;28;20352;-80
2020/12/04 12:53:42;;;;;;;;;;;9.70;77.60;;;;;;5098328;28;20044;-80
2020/12/04 12:56:11;;;;;;;;;;;9.50;78.50;;;;;;5095668;28;19912;-80
2020/12/04 12:58:36;;;;;;;;;;;9.40;78.30;;;;;;5097975;28;19908;-80
2020/12/04 13:01:08;;;;;;;;;;;9.30;79.00;;;;;;5113742;28;20268;-81
2020/12/04 13:03:37;;;;;;;;;;;9.30;78.70;;;;;;5098270;28;19908;-81
2020/12/04 13:06:03;;;;;;;;;;;9.20;79.00;;;;;;5094158;28;19928;-81
2020/12/04 13:08:34;;;;;;;;;;;9.20;78.50;;;;;;5096317;28;19912;-80
2020/12/04 13:10:59;;;;;;;;;;;9.10;79.00;;;;;;5096582;28;19915;-81
2020/12/04 13:13:29;;;;;;;;;;;9.10;79.10;;;;;;5095156;28;19908;-81
2020/12/04 13:15:57;;;;;;;;;;;9.00;79.60;;;;;;5091393;28;19912;-81
2020/12/04 13:22:05;;;;;;;;;;;8.80;79.10;;;;;;5096194;28;20014;-81
2020/12/04 13:24:20;;;;;;;;;;;8.70;79.30;;;;;;5086970;28;19915;-81
2020/12/04 13:26:46;;;;;;;;;;;8.70;80.10;;;;;;5094363;28;19916;-81
2020/12/04 13:29:11;;;;;;;;;;;8.70;80.00;;;;;;5095549;28;19914;-81
2020/12/04 13:31:43;;;;;;;;;;;8.70;80.00;;;;;;5094728;28;19912;-82
2020/12/04 13:34:10;;;;;;;;;;;8.70;79.80;;;;;;5093755;28;20285;-80
2020/12/04 13:36:38;;;;;;;;;;;8.60;79.50;;;;;;5092216;28;20060;-81
2020/12/04 13:39:10;;;;;;;;;;;8.60;79.80;;;;;;5094480;28;19912;-80
2020/12/04 13:41:38;;;;;;;;;;;8.60;79.20;;;;;;5091181;28;20003;-81
2020/12/04 13:44:13;;;;;;;;;;;8.60;79.60;;;;;;5094333;28;19959;-80
2020/12/04 13:46:38;;;;;;;;;;;8.50;79.90;;;;;;5093329;28;20023;-80
2020/12/04 13:49:04;;;;;;;;;;;8.50;80.30;;;;;;5094680;28;19959;-81
2020/12/04 13:51:44;;;;;;;;;;;8.40;80.50;;;;;;5095246;28;19908;-81
2020/12/04 13:54:10;;;;;;;;;;;8.40;81.00;;;;;;5092628;28;19915;-81
2020/12/04 13:56:39;;;;;;;;;;;8.30;81.20;;;;;;5093779;28;19908;-80
2020/12/04 13:59:05;;;;;;;;;;;8.30;82.00;;;;;;5093773;28;19912;-80
2020/12/04 14:01:36;;;;;;;;;;;8.20;82.10;;;;;;5094552;28;19916;-81
2020/12/04 14:04:04;;;;;;;;;;;8.20;82.80;;;;;;5093848;28;19915;-81
2020/12/04 14:06:33;;;;;;;;;;;8.20;82.80;;;;;;5105867;28;19919;-80
2020/12/04 14:09:19;;;;;;;;;;;8.10;83.10;;;;;;5113347;28;20340;-81
2020/12/04 14:11:47;;;;;;;;;;;8.10;82.90;;;;;;5097028;28;20279;-81
2020/12/04 14:14:13;;;;;;;;;;;8.10;83.30;;;;;;5114691;28;19984;-82
2020/12/04 14:16:41;;;;;;;;;;;8.00;84.20;;;;;;5111131;28;19998;-81
2020/12/04 14:19:13;;;;;;;;;;;8.10;84.60;;;;;;5097188;28;20380;-81
2020/12/04 14:21:42;;;;;;;;;;;8.00;84.80;;;;;;5097208;28;20318;-81
2020/12/04 14:24:07;;;;;;;;;;;8.10;85.10;;;;;;5093763;28;19911;-81
2020/12/04 14:26:39;;;;;;;;;;;8.10;85.40;;;;;;5093395;28;19934;-81
2020/12/04 14:29:28;;;;;;;;;;;8.10;85.40;;;;;;5114626;28;19987;-81
2020/12/04 14:32:12;;;;;;;;;;;8.20;85.20;;;;;;5095387;28;19915;-81
2020/12/04 14:34:41;;;;;;;;;;;8.20;85.50;;;;;;5114595;28;20400;-81
2020/12/04 14:37:09;;;;;;;;;;;8.30;85.90;;;;;;5096024;28;19960;-82
2020/12/04 14:39:38;;;;;;;;;;;8.30;86.30;;;;;;5096861;28;19927;-81
2020/12/04 14:42:11;;;;;;;;;;;8.30;86.40;;;;;;5114511;28;19914;-81
2020/12/04 14:44:39;;;;;;;;;;;8.20;86.60;;;;;;5096150;28;19908;-81
2020/12/04 14:47:25;;;;;;;;;;;8.10;86.80;;;;;;5096315;28;20272;-81
2020/12/04 14:49:54;;;;;;;;;;;8.00;87.20;;;;;;5095351;28;19952;-81
2020/12/04 14:52:24;;;;;;;;;;;7.90;87.20;;;;;;5096942;28;19930;-80
2020/12/04 14:54:58;;;;;;;;;;;7.90;87.60;;;;;;5115874;28;19915;-80
2020/12/04 14:57:33;;;;;;;;;;;7.90;88.30;;;;;;5096574;28;19908;-80
2020/12/04 15:00:10;;;;;;;;;;;7.90;88.40;;;;;;5113985;28;19912;-80